CheckWX is a tool to help pilots better visualize weather data.  It is not intended as a substitute for an official pre-flight weather briefing.

17:34:22 UTC

OISL TAF
Lar Airport
Lar, Iran
TAF OISL 051100Z 0512/0618 28006KT 8000 NSC

Apr-5@
12:00 UTC

Apr-5 @ 12:00 UTC

Apr-6@
18:00 UTC

Apr-6 @ 18:00 UTC

TAF OISL 051100Z 0512/0618 28006KT 8000 NSC
Wind
  • 280° at 6 KTS
Cloud Levels
  • No significant clouds